sensor_id;sensor_type;location;lat;lon;timestamp;temperature;humidity
78694;SHT31;68029;51.978;5.646;2023-07-20T00:00:02;19.8;69.7
78694;SHT31;68029;51.978;5.646;2023-07-20T00:02:31;19.8;68.8
78694;SHT31;68029;51.978;5.646;2023-07-20T00:05:00;19.8;69.8
78694;SHT31;68029;51.978;5.646;2023-07-20T00:07:28;19.8;69.8
78694;SHT31;68029;51.978;5.646;2023-07-20T00:09:57;19.7;70.4
78694;SHT31;68029;51.978;5.646;2023-07-20T00:12:25;19.7;70.1
78694;SHT31;68029;51.978;5.646;2023-07-20T00:14:54;19.7;70.2
78694;SHT31;68029;51.978;5.646;2023-07-20T00:17:24;19.7;69.4
78694;SHT31;68029;51.978;5.646;2023-07-20T00:19:53;19.6;69.6
78694;SHT31;68029;51.978;5.646;2023-07-20T00:22:21;19.6;69.6
78694;SHT31;68029;51.978;5.646;2023-07-20T00:24:49;19.6;69.1
78694;SHT31;68029;51.978;5.646;2023-07-20T00:27:19;19.5;69.5
78694;SHT31;68029;51.978;5.646;2023-07-20T00:29:47;19.5;70.5
78694;SHT31;68029;51.978;5.646;2023-07-20T00:32:16;19.4;69.9
78694;SHT31;68029;51.978;5.646;2023-07-20T00:34:45;19.4;70.2
78694;SHT31;68029;51.978;5.646;2023-07-20T00:37:13;19.4;69.8
78694;SHT31;68029;51.978;5.646;2023-07-20T00:39:42;19.3;70.6
78694;SHT31;68029;51.978;5.646;2023-07-20T00:42:10;19.3;69.8
78694;SHT31;68029;51.978;5.646;2023-07-20T00:44:39;19.3;70.3
78694;SHT31;68029;51.978;5.646;2023-07-20T00:47:07;19.2;70.2
78694;SHT31;68029;51.978;5.646;2023-07-20T00:49:39;19.2;70.4
78694;SHT31;68029;51.978;5.646;2023-07-20T00:52:10;19.2;70.4
78694;SHT31;68029;51.978;5.646;2023-07-20T00:54:42;19.1;71.3
78694;SHT31;68029;51.978;5.646;2023-07-20T00:57:14;19.1;71.2
78694;SHT31;68029;51.978;5.646;2023-07-20T00:59:44;19.1;70.9
78694;SHT31;68029;51.978;5.646;2023-07-20T01:02:13;19.1;70.4
78694;SHT31;68029;51.978;5.646;2023-07-20T01:04:42;19.1;71.1
78694;SHT31;68029;51.978;5.646;2023-07-20T01:07:17;19.1;71.2
78694;SHT31;68029;51.978;5.646;2023-07-20T01:09:55;19.0;71.7
78694;SHT31;68029;51.978;5.646;2023-07-20T01:12:30;19.0;71.6
78694;SHT31;68029;51.978;5.646;2023-07-20T01:15:00;19.0;71.4
78694;SHT31;68029;51.978;5.646;2023-07-20T01:17:29;19.0;71.2
78694;SHT31;68029;51.978;5.646;2023-07-20T01:19:57;19.0;70.4
78694;SHT31;68029;51.978;5.646;2023-07-20T01:22:50;19.0;70.3
78694;SHT31;68029;51.978;5.646;2023-07-20T01:25:34;19.0;69.6
78694;SHT31;68029;51.978;5.646;2023-07-20T01:28:38;18.9;69.7
78694;SHT31;68029;51.978;5.646;2023-07-20T01:31:17;18.9;70.3
78694;SHT31;68029;51.978;5.646;2023-07-20T01:33:49;18.9;70.6
78694;SHT31;68029;51.978;5.646;2023-07-20T01:36:20;18.8;70.6
78694;SHT31;68029;51.978;5.646;2023-07-20T01:38:51;18.8;70.2
78694;SHT31;68029;51.978;5.646;2023-07-20T01:41:20;18.8;70.3
78694;SHT31;68029;51.978;5.646;2023-07-20T01:43:49;18.7;69.4
78694;SHT31;68029;51.978;5.646;2023-07-20T01:46:17;18.7;70.5
78694;SHT31;68029;51.978;5.646;2023-07-20T01:48:48;18.6;70.3
78694;SHT31;68029;51.978;5.646;2023-07-20T01:51:17;18.6;70.8
78694;SHT31;68029;51.978;5.646;2023-07-20T01:53:46;18.6;70.3
78694;SHT31;68029;51.978;5.646;2023-07-20T01:56:15;18.5;70.4
78694;SHT31;68029;51.978;5.646;2023-07-20T01:58:43;18.5;70.5
78694;SHT31;68029;51.978;5.646;2023-07-20T02:01:12;18.5;70.9
78694;SHT31;68029;51.978;5.646;2023-07-20T02:03:40;18.5;70.5
78694;SHT31;68029;51.978;5.646;2023-07-20T02:06:09;18.4;70.7
78694;SHT31;68029;51.978;5.646;2023-07-20T02:08:37;18.4;70.6
78694;SHT31;68029;51.978;5.646;2023-07-20T02:11:06;18.4;70.5
78694;SHT31;68029;51.978;5.646;2023-07-20T02:13:36;18.3;70.3
78694;SHT31;68029;51.978;5.646;2023-07-20T02:16:05;18.3;70.2
78694;SHT31;68029;51.978;5.646;2023-07-20T02:18:34;18.3;70.2
78694;SHT31;68029;51.978;5.646;2023-07-20T02:21:03;18.3;70.2
78694;SHT31;68029;51.978;5.646;2023-07-20T02:23:32;18.2;70.6
78694;SHT31;68029;51.978;5.646;2023-07-20T02:26:00;18.2;70.6
78694;SHT31;68029;51.978;5.646;2023-07-20T02:28:29;18.1;70.6
78694;SHT31;68029;51.978;5.646;2023-07-20T02:33:24;18.2;69.5
78694;SHT31;68029;51.978;5.646;2023-07-20T02:35:53;18.1;69.6
78694;SHT31;68029;51.978;5.646;2023-07-20T02:38:21;18.1;69.2
78694;SHT31;68029;51.978;5.646;2023-07-20T02:40:50;18.1;69.2
78694;SHT31;68029;51.978;5.646;2023-07-20T02:43:18;18.1;69.2
78694;SHT31;68029;51.978;5.646;2023-07-20T02:45:50;18.0;69.4
78694;SHT31;68029;51.978;5.646;2023-07-20T02:48:20;18.0;69.6
78694;SHT31;68029;51.978;5.646;2023-07-20T02:50:49;18.0;69.8
78694;SHT31;68029;51.978;5.646;2023-07-20T02:53:17;17.9;70.3
78694;SHT31;68029;51.978;5.646;2023-07-20T02:55:45;17.9;70.7
78694;SHT31;68029;51.978;5.646;2023-07-20T02:58:14;17.8;71.4
78694;SHT31;68029;51.978;5.646;2023-07-20T03:00:44;17.8;71.2
78694;SHT31;68029;51.978;5.646;2023-07-20T03:03:12;17.8;71.1
78694;SHT31;68029;51.978;5.646;2023-07-20T03:05:42;17.8;70.9
78694;SHT31;68029;51.978;5.646;2023-07-20T03:08:10;17.7;70.7
78694;SHT31;68029;51.978;5.646;2023-07-20T03:10:42;17.7;70.9
78694;SHT31;68029;51.978;5.646;2023-07-20T03:13:10;17.6;71.0
78694;SHT31;68029;51.978;5.646;2023-07-20T03:15:40;17.6;71.2
78694;SHT31;68029;51.978;5.646;2023-07-20T03:18:11;17.6;71.1
78694;SHT31;68029;51.978;5.646;2023-07-20T03:20:39;17.5;71.3
78694;SHT31;68029;51.978;5.646;2023-07-20T03:23:08;17.5;71.3
78694;SHT31;68029;51.978;5.646;2023-07-20T03:25:36;17.5;71.2
78694;SHT31;68029;51.978;5.646;2023-07-20T03:28:07;17.4;71.0
78694;SHT31;68029;51.978;5.646;2023-07-20T03:30:36;17.4;71.1
78694;SHT31;68029;51.978;5.646;2023-07-20T03:33:04;17.4;70.6
78694;SHT31;68029;51.978;5.646;2023-07-20T03:35:33;17.3;71.1
78694;SHT31;68029;51.978;5.646;2023-07-20T03:38:01;17.3;71.1
78694;SHT31;68029;51.978;5.646;2023-07-20T03:40:31;17.2;71.1
78694;SHT31;68029;51.978;5.646;2023-07-20T03:42:59;17.2;71.0
78694;SHT31;68029;51.978;5.646;2023-07-20T03:45:28;17.2;71.0
78694;SHT31;68029;51.978;5.646;2023-07-20T03:47:57;17.1;71.2
78694;SHT31;68029;51.978;5.646;2023-07-20T03:50:25;17.1;71.3
78694;SHT31;68029;51.978;5.646;2023-07-20T03:52:53;17.1;71.4
78694;SHT31;68029;51.978;5.646;2023-07-20T03:55:22;17.1;71.4
78694;SHT31;68029;51.978;5.646;2023-07-20T03:57:50;17.0;71.5
78694;SHT31;68029;51.978;5.646;2023-07-20T04:00:19;17.0;71.7
78694;SHT31;68029;51.978;5.646;2023-07-20T04:02:47;17.0;71.9
78694;SHT31;68029;51.978;5.646;2023-07-20T04:05:16;17.0;71.9
78694;SHT31;68029;51.978;5.646;2023-07-20T04:07:44;16.9;71.7
78694;SHT31;68029;51.978;5.646;2023-07-20T04:10:15;16.9;71.9
78694;SHT31;68029;51.978;5.646;2023-07-20T04:12:44;16.9;72.1
78694;SHT31;68029;51.978;5.646;2023-07-20T04:15:14;16.9;72.4
78694;SHT31;68029;51.978;5.646;2023-07-20T04:17:42;16.9;72.8
78694;SHT31;68029;51.978;5.646;2023-07-20T04:20:11;16.9;72.8
78694;SHT31;68029;51.978;5.646;2023-07-20T04:22:40;16.9;73.5
78694;SHT31;68029;51.978;5.646;2023-07-20T04:25:09;16.9;74.2
78694;SHT31;68029;51.978;5.646;2023-07-20T04:27:38;16.9;74.6
78694;SHT31;68029;51.978;5.646;2023-07-20T04:30:11;16.9;74.8
78694;SHT31;68029;51.978;5.646;2023-07-20T04:32:44;16.9;75.4
78694;SHT31;68029;51.978;5.646;2023-07-20T04:35:17;16.9;75.3
78694;SHT31;68029;51.978;5.646;2023-07-20T04:37:46;16.9;75.8
78694;SHT31;68029;51.978;5.646;2023-07-20T04:40:16;16.9;75.6
78694;SHT31;68029;51.978;5.646;2023-07-20T04:42:44;17.0;75.1
78694;SHT31;68029;51.978;5.646;2023-07-20T04:45:15;17.0;75.3
78694;SHT31;68029;51.978;5.646;2023-07-20T04:47:45;17.0;75.6
78694;SHT31;68029;51.978;5.646;2023-07-20T04:50:13;17.0;75.9
78694;SHT31;68029;51.978;5.646;2023-07-20T04:52:42;17.1;75.0
78694;SHT31;68029;51.978;5.646;2023-07-20T04:55:12;17.1;75.8
78694;SHT31;68029;51.978;5.646;2023-07-20T04:57:41;17.1;75.8
78694;SHT31;68029;51.978;5.646;2023-07-20T05:00:10;17.2;76.4
78694;SHT31;68029;51.978;5.646;2023-07-20T05:02:40;17.2;75.4
78694;SHT31;68029;51.978;5.646;2023-07-20T05:05:09;17.3;74.9
78694;SHT31;68029;51.978;5.646;2023-07-20T05:07:38;17.3;75.1
78694;SHT31;68029;51.978;5.646;2023-07-20T05:10:08;17.4;75.4
78694;SHT31;68029;51.978;5.646;2023-07-20T05:12:37;17.4;75.6
78694;SHT31;68029;51.978;5.646;2023-07-20T05:15:07;17.5;75.7
78694;SHT31;68029;51.978;5.646;2023-07-20T05:17:35;17.6;75.2
78694;SHT31;68029;51.978;5.646;2023-07-20T05:20:06;17.6;74.8
78694;SHT31;68029;51.978;5.646;2023-07-20T05:22:37;17.7;74.7
78694;SHT31;68029;51.978;5.646;2023-07-20T05:25:09;17.7;75.3
78694;SHT31;68029;51.978;5.646;2023-07-20T05:27:39;17.8;74.5
78694;SHT31;68029;51.978;5.646;2023-07-20T05:30:08;17.8;73.8
78694;SHT31;68029;51.978;5.646;2023-07-20T05:32:39;17.9;73.7
78694;SHT31;68029;51.978;5.646;2023-07-20T05:35:09;17.9;73.3
78694;SHT31;68029;51.978;5.646;2023-07-20T05:37:38;17.9;73.1
78694;SHT31;68029;51.978;5.646;2023-07-20T05:40:08;17.9;73.3
78694;SHT31;68029;51.978;5.646;2023-07-20T05:42:38;17.9;73.4
78694;SHT31;68029;51.978;5.646;2023-07-20T05:45:08;17.9;74.2
78694;SHT31;68029;51.978;5.646;2023-07-20T05:47:36;17.9;74.5
78694;SHT31;68029;51.978;5.646;2023-07-20T05:50:06;17.9;74.3
78694;SHT31;68029;51.978;5.646;2023-07-20T05:52:37;17.9;74.9
78694;SHT31;68029;51.978;5.646;2023-07-20T05:55:07;17.9;74.0
78694;SHT31;68029;51.978;5.646;2023-07-20T05:57:35;17.9;73.3
78694;SHT31;68029;51.978;5.646;2023-07-20T06:00:10;18.0;74.4
78694;SHT31;68029;51.978;5.646;2023-07-20T06:02:40;18.0;75.3
78694;SHT31;68029;51.978;5.646;2023-07-20T06:05:09;18.1;74.8
78694;SHT31;68029;51.978;5.646;2023-07-20T06:07:38;18.2;75.6
78694;SHT31;68029;51.978;5.646;2023-07-20T06:10:08;18.3;75.0
78694;SHT31;68029;51.978;5.646;2023-07-20T06:12:37;18.5;73.9
78694;SHT31;68029;51.978;5.646;2023-07-20T06:15:25;18.6;74.0
78694;SHT31;68029;51.978;5.646;2023-07-20T06:17:56;18.8;72.2
78694;SHT31;68029;51.978;5.646;2023-07-20T06:20:25;18.9;71.3
78694;SHT31;68029;51.978;5.646;2023-07-20T06:22:53;19.0;72.4
78694;SHT31;68029;51.978;5.646;2023-07-20T06:25:21;19.2;72.2
78694;SHT31;68029;51.978;5.646;2023-07-20T06:27:51;19.3;72.2
78694;SHT31;68029;51.978;5.646;2023-07-20T06:30:20;19.5;71.0
78694;SHT31;68029;51.978;5.646;2023-07-20T06:32:48;19.6;69.1
78694;SHT31;68029;51.978;5.646;2023-07-20T06:35:17;19.8;68.9
78694;SHT31;68029;51.978;5.646;2023-07-20T06:37:46;19.9;67.8
78694;SHT31;68029;51.978;5.646;2023-07-20T06:40:15;20.1;68.6
78694;SHT31;68029;51.978;5.646;2023-07-20T06:42:45;20.2;67.4
78694;SHT31;68029;51.978;5.646;2023-07-20T06:45:14;20.4;63.3
78694;SHT31;68029;51.978;5.646;2023-07-20T06:47:44;20.6;66.8
78694;SHT31;68029;51.978;5.646;2023-07-20T06:50:13;20.7;66.2
78694;SHT31;68029;51.978;5.646;2023-07-20T06:52:41;20.9;63.1
78694;SHT31;68029;51.978;5.646;2023-07-20T06:55:12;21.1;63.8
78694;SHT31;68029;51.978;5.646;2023-07-20T06:57:42;21.2;62.8
78694;SHT31;68029;51.978;5.646;2023-07-20T07:00:11;21.4;61.9
78694;SHT31;68029;51.978;5.646;2023-07-20T07:02:41;21.6;60.9
78694;SHT31;68029;51.978;5.646;2023-07-20T07:05:09;21.8;60.1
78694;SHT31;68029;51.978;5.646;2023-07-20T07:07:40;21.9;58.3
78694;SHT31;68029;51.978;5.646;2023-07-20T07:10:09;22.0;58.9
78694;SHT31;68029;51.978;5.646;2023-07-20T07:12:37;22.1;59.5
78694;SHT31;68029;51.978;5.646;2023-07-20T07:15:07;22.3;57.5
78694;SHT31;68029;51.978;5.646;2023-07-20T07:17:37;22.4;56.3
78694;SHT31;68029;51.978;5.646;2023-07-20T07:20:06;22.4;56.5
78694;SHT31;68029;51.978;5.646;2023-07-20T07:22:36;22.4;56.4
78694;SHT31;68029;51.978;5.646;2023-07-20T07:25:05;22.4;56.9
78694;SHT31;68029;51.978;5.646;2023-07-20T07:27:34;22.4;56.7
78694;SHT31;68029;51.978;5.646;2023-07-20T07:30:03;22.4;58.0
78694;SHT31;68029;51.978;5.646;2023-07-20T07:32:31;22.5;57.3
78694;SHT31;68029;51.978;5.646;2023-07-20T07:35:01;22.6;54.8
78694;SHT31;68029;51.978;5.646;2023-07-20T07:37:30;22.7;55.4
78694;SHT31;68029;51.978;5.646;2023-07-20T07:39:59;22.7;53.4
78694;SHT31;68029;51.978;5.646;2023-07-20T07:42:29;22.7;55.2
78694;SHT31;68029;51.978;5.646;2023-07-20T07:44:58;22.8;54.0
78694;SHT31;68029;51.978;5.646;2023-07-20T07:47:26;22.9;52.7
78694;SHT31;68029;51.978;5.646;2023-07-20T07:49:54;23.0;54.2
78694;SHT31;68029;51.978;5.646;2023-07-20T07:52:24;23.1;54.8
78694;SHT31;68029;51.978;5.646;2023-07-20T07:54:52;23.3;53.1
78694;SHT31;68029;51.978;5.646;2023-07-20T07:57:20;23.5;51.0
78694;SHT31;68029;51.978;5.646;2023-07-20T07:59:49;23.7;51.3
78694;SHT31;68029;51.978;5.646;2023-07-20T08:02:17;23.9;51.8
78694;SHT31;68029;51.978;5.646;2023-07-20T08:04:45;24.1;49.3
78694;SHT31;68029;51.978;5.646;2023-07-20T08:07:16;24.3;50.5
78694;SHT31;68029;51.978;5.646;2023-07-20T08:09:44;24.5;48.9
78694;SHT31;68029;51.978;5.646;2023-07-20T08:12:12;24.6;48.2
78694;SHT31;68029;51.978;5.646;2023-07-20T08:14:44;24.7;49.2
78694;SHT31;68029;51.978;5.646;2023-07-20T08:17:12;24.8;46.9
78694;SHT31;68029;51.978;5.646;2023-07-20T08:19:42;24.9;46.0
78694;SHT31;68029;51.978;5.646;2023-07-20T08:22:11;24.9;47.6
78694;SHT31;68029;51.978;5.646;2023-07-20T08:24:41;24.9;48.7
78694;SHT31;68029;51.978;5.646;2023-07-20T08:27:10;25.0;48.4
78694;SHT31;68029;51.978;5.646;2023-07-20T08:29:39;25.0;48.4
78694;SHT31;68029;51.978;5.646;2023-07-20T08:32:08;25.0;46.0
78694;SHT31;68029;51.978;5.646;2023-07-20T08:34:37;25.0;45.7
78694;SHT31;68029;51.978;5.646;2023-07-20T08:37:06;24.9;47.0
78694;SHT31;68029;51.978;5.646;2023-07-20T08:39:36;24.7;48.4
78694;SHT31;68029;51.978;5.646;2023-07-20T08:42:06;24.6;47.9
78694;SHT31;68029;51.978;5.646;2023-07-20T08:44:35;24.5;46.8
78694;SHT31;68029;51.978;5.646;2023-07-20T08:47:06;24.4;48.8
78694;SHT31;68029;51.978;5.646;2023-07-20T08:49:39;24.3;45.8
78694;SHT31;68029;51.978;5.646;2023-07-20T08:52:08;24.2;46.5
78694;SHT31;68029;51.978;5.646;2023-07-20T08:54:39;24.1;46.4
78694;SHT31;68029;51.978;5.646;2023-07-20T08:57:13;24.1;46.5
78694;SHT31;68029;51.978;5.646;2023-07-20T08:59:43;24.0;45.4
78694;SHT31;68029;51.978;5.646;2023-07-20T09:02:16;24.0;47.3
78694;SHT31;68029;51.978;5.646;2023-07-20T09:04:46;24.0;47.7
78694;SHT31;68029;51.978;5.646;2023-07-20T09:07:15;24.1;49.8
78694;SHT31;68029;51.978;5.646;2023-07-20T09:09:45;24.2;50.4
78694;SHT31;68029;51.978;5.646;2023-07-20T09:12:16;24.4;48.7
78694;SHT31;68029;51.978;5.646;2023-07-20T09:14:45;24.8;48.0
78694;SHT31;68029;51.978;5.646;2023-07-20T09:17:15;25.1;45.7
78694;SHT31;68029;51.978;5.646;2023-07-20T09:19:48;25.4;45.3
78694;SHT31;68029;51.978;5.646;2023-07-20T09:22:17;25.5;45.0
78694;SHT31;68029;51.978;5.646;2023-07-20T09:24:45;25.6;45.2
78694;SHT31;68029;51.978;5.646;2023-07-20T09:27:14;25.7;45.0
78694;SHT31;68029;51.978;5.646;2023-07-20T09:29:50;25.8;43.1
78694;SHT31;68029;51.978;5.646;2023-07-20T09:32:22;25.8;44.8
78694;SHT31;68029;51.978;5.646;2023-07-20T09:34:51;25.9;45.1
78694;SHT31;68029;51.978;5.646;2023-07-20T09:37:22;26.0;44.7
78694;SHT31;68029;51.978;5.646;2023-07-20T09:39:52;26.1;43.2
78694;SHT31;68029;51.978;5.646;2023-07-20T09:42:22;26.2;41.9
78694;SHT31;68029;51.978;5.646;2023-07-20T09:44:53;26.2;41.4
78694;SHT31;68029;51.978;5.646;2023-07-20T09:47:25;26.3;41.6
78694;SHT31;68029;51.978;5.646;2023-07-20T09:49:59;26.2;42.4
78694;SHT31;68029;51.978;5.646;2023-07-20T09:52:29;26.2;42.0
78694;SHT31;68029;51.978;5.646;2023-07-20T09:54:58;26.1;42.8
78694;SHT31;68029;51.978;5.646;2023-07-20T09:57:28;26.0;43.0
78694;SHT31;68029;51.978;5.646;2023-07-20T09:59:59;25.9;43.0
78694;SHT31;68029;51.978;5.646;2023-07-20T10:02:33;25.8;42.4
78694;SHT31;68029;51.978;5.646;2023-07-20T10:05:04;25.7;46.1
78694;SHT31;68029;51.978;5.646;2023-07-20T10:07:36;25.6;44.1
78694;SHT31;68029;51.978;5.646;2023-07-20T10:10:09;25.5;43.1
78694;SHT31;68029;51.978;5.646;2023-07-20T10:12:40;25.4;43.1
78694;SHT31;68029;51.978;5.646;2023-07-20T10:15:15;25.3;44.8
78694;SHT31;68029;51.978;5.646;2023-07-20T10:17:55;25.3;45.0
78694;SHT31;68029;51.978;5.646;2023-07-20T10:20:27;25.2;45.7
78694;SHT31;68029;51.978;5.646;2023-07-20T10:22:59;25.3;44.2
78694;SHT31;68029;51.978;5.646;2023-07-20T10:25:28;25.5;43.4
78694;SHT31;68029;51.978;5.646;2023-07-20T10:27:58;25.7;41.5
78694;SHT31;68029;51.978;5.646;2023-07-20T10:30:28;26.0;42.7
78694;SHT31;68029;51.978;5.646;2023-07-20T10:32:57;26.5;42.7
78694;SHT31;68029;51.978;5.646;2023-07-20T10:35:29;26.9;41.5
78694;SHT31;68029;51.978;5.646;2023-07-20T10:38:03;27.2;42.9
78694;SHT31;68029;51.978;5.646;2023-07-20T10:40:34;27.4;40.5
78694;SHT31;68029;51.978;5.646;2023-07-20T10:43:04;27.5;39.2
78694;SHT31;68029;51.978;5.646;2023-07-20T10:45:35;27.5;41.0
78694;SHT31;68029;51.978;5.646;2023-07-20T10:48:05;27.5;40.4
78694;SHT31;68029;51.978;5.646;2023-07-20T10:50:36;27.4;41.3
78694;SHT31;68029;51.978;5.646;2023-07-20T10:53:12;27.4;40.8
78694;SHT31;68029;51.978;5.646;2023-07-20T10:55:42;27.4;40.3
78694;SHT31;68029;51.978;5.646;2023-07-20T10:58:14;27.4;40.8
78694;SHT31;68029;51.978;5.646;2023-07-20T11:00:57;27.4;37.8
78694;SHT31;68029;51.978;5.646;2023-07-20T11:03:31;27.4;40.7
78694;SHT31;68029;51.978;5.646;2023-07-20T11:09:06;27.4;41.9
78694;SHT31;68029;51.978;5.646;2023-07-20T11:11:38;27.3;41.7
78694;SHT31;68029;51.978;5.646;2023-07-20T11:14:09;27.2;41.6
78694;SHT31;68029;51.978;5.646;2023-07-20T11:16:40;27.2;39.9
78694;SHT31;68029;51.978;5.646;2023-07-20T11:19:20;27.1;38.8
78694;SHT31;68029;51.978;5.646;2023-07-20T11:21:53;27.1;43.8
78694;SHT31;68029;51.978;5.646;2023-07-20T11:24:23;27.1;42.3
78694;SHT31;68029;51.978;5.646;2023-07-20T11:26:53;27.2;42.4
78694;SHT31;68029;51.978;5.646;2023-07-20T11:29:23;27.4;41.1
78694;SHT31;68029;51.978;5.646;2023-07-20T11:31:54;27.6;39.8
78694;SHT31;68029;51.978;5.646;2023-07-20T11:34:22;27.8;41.4
78694;SHT31;68029;51.978;5.646;2023-07-20T11:36:53;28.1;40.4
78694;SHT31;68029;51.978;5.646;2023-07-20T11:39:23;28.4;36.0
78694;SHT31;68029;51.978;5.646;2023-07-20T11:41:53;28.6;39.9
78694;SHT31;68029;51.978;5.646;2023-07-20T11:44:24;28.8;38.5
78694;SHT31;68029;51.978;5.646;2023-07-20T11:47:02;29.0;38.2
78694;SHT31;68029;51.978;5.646;2023-07-20T11:49:35;29.2;36.5
78694;SHT31;68029;51.978;5.646;2023-07-20T11:52:08;29.3;36.9
78694;SHT31;68029;51.978;5.646;2023-07-20T11:54:38;29.4;35.1
78694;SHT31;68029;51.978;5.646;2023-07-20T11:57:17;29.6;34.5
78694;SHT31;68029;51.978;5.646;2023-07-20T11:59:55;29.7;35.3
78694;SHT31;68029;51.978;5.646;2023-07-20T12:02:27;29.8;34.0
78694;SHT31;68029;51.978;5.646;2023-07-20T12:04:56;29.9;34.4
78694;SHT31;68029;51.978;5.646;2023-07-20T12:07:28;30.0;33.9
78694;SHT31;68029;51.978;5.646;2023-07-20T12:10:09;30.1;32.7
78694;SHT31;68029;51.978;5.646;2023-07-20T12:12:40;30.2;32.9
78694;SHT31;68029;51.978;5.646;2023-07-20T12:15:21;30.3;32.6
78694;SHT31;68029;51.978;5.646;2023-07-20T12:17:55;30.3;33.6
78694;SHT31;68029;51.978;5.646;2023-07-20T12:20:29;30.4;34.7
78694;SHT31;68029;51.978;5.646;2023-07-20T12:23:01;30.4;33.6
78694;SHT31;68029;51.978;5.646;2023-07-20T12:25:37;30.4;34.2
78694;SHT31;68029;51.978;5.646;2023-07-20T12:28:08;30.5;34.0
78694;SHT31;68029;51.978;5.646;2023-07-20T12:30:37;30.5;32.7
78694;SHT31;68029;51.978;5.646;2023-07-20T12:33:05;30.5;32.2
78694;SHT31;68029;51.978;5.646;2023-07-20T12:35:34;30.6;33.1
78694;SHT31;68029;51.978;5.646;2023-07-20T12:38:03;30.5;32.5
78694;SHT31;68029;51.978;5.646;2023-07-20T12:40:33;30.4;32.7
78694;SHT31;68029;51.978;5.646;2023-07-20T12:43:02;30.3;32.8
78694;SHT31;68029;51.978;5.646;2023-07-20T12:45:33;30.3;31.8
78694;SHT31;68029;51.978;5.646;2023-07-20T12:48:02;30.2;32.8
78694;SHT31;68029;51.978;5.646;2023-07-20T12:50:30;30.2;32.6
78694;SHT31;68029;51.978;5.646;2023-07-20T12:52:58;30.2;33.2
78694;SHT31;68029;51.978;5.646;2023-07-20T12:55:30;30.1;32.2
78694;SHT31;68029;51.978;5.646;2023-07-20T12:58:00;30.1;31.6
78694;SHT31;68029;51.978;5.646;2023-07-20T13:00:29;30.1;32.8
78694;SHT31;68029;51.978;5.646;2023-07-20T13:02:58;30.0;32.8
78694;SHT31;68029;51.978;5.646;2023-07-20T13:05:28;29.9;32.7
78694;SHT31;68029;51.978;5.646;2023-07-20T13:07:59;29.9;33.6
78694;SHT31;68029;51.978;5.646;2023-07-20T13:10:27;29.9;32.8
78694;SHT31;68029;51.978;5.646;2023-07-20T13:12:56;29.8;34.3
78694;SHT31;68029;51.978;5.646;2023-07-20T13:15:30;29.8;35.7
78694;SHT31;68029;51.978;5.646;2023-07-20T13:18:00;29.8;34.2
78694;SHT31;68029;51.978;5.646;2023-07-20T13:20:28;29.8;32.7
78694;SHT31;68029;51.978;5.646;2023-07-20T13:22:58;29.8;32.7
78694;SHT31;68029;51.978;5.646;2023-07-20T13:25:27;29.8;31.4
78694;SHT31;68029;51.978;5.646;2023-07-20T13:27:57;29.8;31.5
78694;SHT31;68029;51.978;5.646;2023-07-20T13:30:25;29.8;32.7
78694;SHT31;68029;51.978;5.646;2023-07-20T13:32:54;29.7;31.9
78694;SHT31;68029;51.978;5.646;2023-07-20T13:35:22;29.5;32.4
78694;SHT31;68029;51.978;5.646;2023-07-20T13:37:51;29.4;34.0
78694;SHT31;68029;51.978;5.646;2023-07-20T13:40:19;29.2;33.2
78694;SHT31;68029;51.978;5.646;2023-07-20T13:42:49;29.1;33.1
78694;SHT31;68029;51.978;5.646;2023-07-20T13:45:17;28.9;33.8
78694;SHT31;68029;51.978;5.646;2023-07-20T13:47:46;28.6;35.2
78694;SHT31;68029;51.978;5.646;2023-07-20T13:50:15;28.4;34.4
78694;SHT31;68029;51.978;5.646;2023-07-20T13:52:45;28.3;35.0
78694;SHT31;68029;51.978;5.646;2023-07-20T13:55:14;28.3;36.3
78694;SHT31;68029;51.978;5.646;2023-07-20T13:57:43;28.3;35.5
78694;SHT31;68029;51.978;5.646;2023-07-20T14:00:13;28.3;34.6
78694;SHT31;68029;51.978;5.646;2023-07-20T14:02:41;28.3;36.0
78694;SHT31;68029;51.978;5.646;2023-07-20T14:05:10;28.4;35.5
78694;SHT31;68029;51.978;5.646;2023-07-20T14:07:41;28.5;36.0
78694;SHT31;68029;51.978;5.646;2023-07-20T14:10:10;28.5;35.5
78694;SHT31;68029;51.978;5.646;2023-07-20T14:12:39;28.7;34.8
78694;SHT31;68029;51.978;5.646;2023-07-20T14:15:09;28.7;35.1
78694;SHT31;68029;51.978;5.646;2023-07-20T14:17:38;28.8;34.7
78694;SHT31;68029;51.978;5.646;2023-07-20T14:20:07;28.8;35.0
78694;SHT31;68029;51.978;5.646;2023-07-20T14:22:36;28.7;33.9
78694;SHT31;68029;51.978;5.646;2023-07-20T14:25:06;28.7;37.7
78694;SHT31;68029;51.978;5.646;2023-07-20T14:27:34;28.7;34.6
78694;SHT31;68029;51.978;5.646;2023-07-20T14:30:04;28.6;34.9
78694;SHT31;68029;51.978;5.646;2023-07-20T14:32:35;28.5;34.1
78694;SHT31;68029;51.978;5.646;2023-07-20T14:36:11;28.3;35.2
78694;SHT31;68029;51.978;5.646;2023-07-20T14:38:40;28.2;34.9
78694;SHT31;68029;51.978;5.646;2023-07-20T14:41:09;28.2;36.4
78694;SHT31;68029;51.978;5.646;2023-07-20T14:43:38;28.2;36.1
78694;SHT31;68029;51.978;5.646;2023-07-20T14:46:07;28.2;34.8
78694;SHT31;68029;51.978;5.646;2023-07-20T14:48:35;28.2;34.9
78694;SHT31;68029;51.978;5.646;2023-07-20T14:51:04;28.2;34.7
78694;SHT31;68029;51.978;5.646;2023-07-20T14:53:33;28.1;36.2
78694;SHT31;68029;51.978;5.646;2023-07-20T14:56:02;28.1;36.1
78694;SHT31;68029;51.978;5.646;2023-07-20T14:58:31;28.1;34.8
78694;SHT31;68029;51.978;5.646;2023-07-20T15:01:00;28.0;36.8
78694;SHT31;68029;51.978;5.646;2023-07-20T15:03:29;28.0;36.6
78694;SHT31;68029;51.978;5.646;2023-07-20T15:05:58;28.0;35.7
78694;SHT31;68029;51.978;5.646;2023-07-20T15:08:27;28.1;35.0
78694;SHT31;68029;51.978;5.646;2023-07-20T15:10:56;28.1;35.6
78694;SHT31;68029;51.978;5.646;2023-07-20T15:13:24;28.0;34.4
78694;SHT31;68029;51.978;5.646;2023-07-20T15:15:53;28.0;33.8
78694;SHT31;68029;51.978;5.646;2023-07-20T15:18:21;27.9;34.8
78694;SHT31;68029;51.978;5.646;2023-07-20T15:20:50;27.9;33.9
78694;SHT31;68029;51.978;5.646;2023-07-20T15:23:20;27.8;33.7
78694;SHT31;68029;51.978;5.646;2023-07-20T15:25:48;27.8;35.3
78694;SHT31;68029;51.978;5.646;2023-07-20T15:28:17;27.7;33.3
78694;SHT31;68029;51.978;5.646;2023-07-20T15:30:45;27.6;33.7
78694;SHT31;68029;51.978;5.646;2023-07-20T15:33:14;27.5;32.4
78694;SHT31;68029;51.978;5.646;2023-07-20T15:35:43;27.3;36.4
78694;SHT31;68029;51.978;5.646;2023-07-20T15:38:12;27.1;34.1
78694;SHT31;68029;51.978;5.646;2023-07-20T15:40:42;27.0;34.7
78694;SHT31;68029;51.978;5.646;2023-07-20T15:43:11;26.9;36.3
78694;SHT31;68029;51.978;5.646;2023-07-20T15:45:39;26.8;35.1
78694;SHT31;68029;51.978;5.646;2023-07-20T15:48:10;26.8;36.3
78694;SHT31;68029;51.978;5.646;2023-07-20T15:50:39;26.7;34.7
78694;SHT31;68029;51.978;5.646;2023-07-20T15:53:07;26.6;35.0
78694;SHT31;68029;51.978;5.646;2023-07-20T15:55:36;26.5;35.6
78694;SHT31;68029;51.978;5.646;2023-07-20T15:58:04;26.4;35.6
78694;SHT31;68029;51.978;5.646;2023-07-20T16:00:33;26.3;36.3
78694;SHT31;68029;51.978;5.646;2023-07-20T16:03:02;26.3;36.2
78694;SHT31;68029;51.978;5.646;2023-07-20T16:05:32;26.2;36.9
78694;SHT31;68029;51.978;5.646;2023-07-20T16:08:00;26.1;37.3
78694;SHT31;68029;51.978;5.646;2023-07-20T16:10:31;26.0;36.7
78694;SHT31;68029;51.978;5.646;2023-07-20T16:13:00;25.9;36.5
78694;SHT31;68029;51.978;5.646;2023-07-20T16:15:28;25.9;37.4
78694;SHT31;68029;51.978;5.646;2023-07-20T16:17:56;25.8;38.4
78694;SHT31;68029;51.978;5.646;2023-07-20T16:20:25;25.7;38.1
78694;SHT31;68029;51.978;5.646;2023-07-20T16:22:54;25.7;36.7
78694;SHT31;68029;51.978;5.646;2023-07-20T16:25:23;25.6;37.6